sensor_id;sensor_type;location;lat;lon;timestamp;P1;durP1;ratioP1;P2;durP2;ratioP2
13311;SDS011;34033;48.672;9.376;2023-05-10T00:01:41;1.03;;;1.00;;
13311;SDS011;34033;48.672;9.376;2023-05-10T00:04:07;0.87;;;0.87;;
13311;SDS011;34033;48.672;9.376;2023-05-10T00:06:32;0.93;;;0.80;;
13311;SDS011;34033;48.672;9.376;2023-05-10T00:08:58;1.83;;;1.10;;
13311;SDS011;34033;48.672;9.376;2023-05-10T00:11:23;0.60;;;0.60;;
13311;SDS011;34033;48.672;9.376;2023-05-10T00:13:48;1.00;;;1.00;;
13311;SDS011;34033;48.672;9.376;2023-05-10T00:16:14;1.30;;;1.10;;
13311;SDS011;34033;48.672;9.376;2023-05-10T00:18:39;1.17;;;0.80;;
13311;SDS011;34033;48.672;9.376;2023-05-10T00:21:05;0.70;;;0.70;;
13311;SDS011;34033;48.672;9.376;2023-05-10T00:23:31;1.10;;;1.00;;
13311;SDS011;34033;48.672;9.376;2023-05-10T00:25:56;0.70;;;0.70;;
13311;SDS011;34033;48.672;9.376;2023-05-10T00:28:22;0.80;;;0.80;;
13311;SDS011;34033;48.672;9.376;2023-05-10T00:30:47;0.80;;;0.80;;
13311;SDS011;34033;48.672;9.376;2023-05-10T00:33:12;0.80;;;0.80;;
13311;SDS011;34033;48.672;9.376;2023-05-10T00:35:38;0.90;;;0.90;;
13311;SDS011;34033;48.672;9.376;2023-05-10T00:38:03;1.00;;;1.00;;
13311;SDS011;34033;48.672;9.376;2023-05-10T00:40:29;0.80;;;0.80;;
13311;SDS011;34033;48.672;9.376;2023-05-10T00:42:55;0.83;;;0.83;;
13311;SDS011;34033;48.672;9.376;2023-05-10T00:45:22;0.93;;;0.80;;
13311;SDS011;34033;48.672;9.376;2023-05-10T00:47:48;1.17;;;0.83;;
13311;SDS011;34033;48.672;9.376;2023-05-10T00:50:14;0.80;;;0.80;;
13311;SDS011;34033;48.672;9.376;2023-05-10T00:52:40;0.80;;;0.80;;
13311;SDS011;34033;48.672;9.376;2023-05-10T00:55:06;0.40;;;0.40;;
13311;SDS011;34033;48.672;9.376;2023-05-10T00:57:32;0.43;;;0.43;;
13311;SDS011;34033;48.672;9.376;2023-05-10T00:59:57;0.43;;;0.43;;
13311;SDS011;34033;48.672;9.376;2023-05-10T01:02:24;0.40;;;0.40;;
13311;SDS011;34033;48.672;9.376;2023-05-10T01:04:49;0.33;;;0.33;;
13311;SDS011;34033;48.672;9.376;2023-05-10T01:07:15;0.50;;;0.50;;
13311;SDS011;34033;48.672;9.376;2023-05-10T01:09:40;0.63;;;0.40;;
13311;SDS011;34033;48.672;9.376;2023-05-10T01:12:06;0.20;;;0.20;;
13311;SDS011;34033;48.672;9.376;2023-05-10T01:14:32;0.30;;;0.30;;
13311;SDS011;34033;48.672;9.376;2023-05-10T01:16:58;0.47;;;0.47;;
13311;SDS011;34033;48.672;9.376;2023-05-10T01:19:26;0.30;;;0.30;;
13311;SDS011;34033;48.672;9.376;2023-05-10T01:35:15;0.40;;;0.40;;
13311;SDS011;34033;48.672;9.376;2023-05-10T01:37:52;0.13;;;0.13;;
13311;SDS011;34033;48.672;9.376;2023-05-10T01:42:53;0.10;;;0.10;;
13311;SDS011;34033;48.672;9.376;2023-05-10T01:45:28;0.30;;;0.30;;
13311;SDS011;34033;48.672;9.376;2023-05-10T01:48:09;0.10;;;0.10;;
13311;SDS011;34033;48.672;9.376;2023-05-10T01:50:36;0.30;;;0.20;;
13311;SDS011;34033;48.672;9.376;2023-05-10T01:53:05;0.10;;;0.10;;
13311;SDS011;34033;48.672;9.376;2023-05-10T01:55:35;0.27;;;0.23;;
13311;SDS011;34033;48.672;9.376;2023-05-10T01:58:06;0.30;;;0.30;;
13311;SDS011;34033;48.672;9.376;2023-05-10T02:00:34;0.30;;;0.30;;
13311;SDS011;34033;48.672;9.376;2023-05-10T02:03:01;1.60;;;0.30;;
13311;SDS011;34033;48.672;9.376;2023-05-10T02:05:31;0.30;;;0.30;;
13311;SDS011;34033;48.672;9.376;2023-05-10T02:07:58;0.20;;;0.20;;
13311;SDS011;34033;48.672;9.376;2023-05-10T02:10:25;0.10;;;0.10;;
13311;SDS011;34033;48.672;9.376;2023-05-10T02:12:52;0.20;;;0.20;;
13311;SDS011;34033;48.672;9.376;2023-05-10T02:15:20;1.63;;;0.90;;
13311;SDS011;34033;48.672;9.376;2023-05-10T02:17:48;0.23;;;0.23;;
13311;SDS011;34033;48.672;9.376;2023-05-10T02:20:14;0.23;;;0.23;;
13311;SDS011;34033;48.672;9.376;2023-05-10T02:22:42;0.10;;;0.10;;
13311;SDS011;34033;48.672;9.376;2023-05-10T02:25:09;0.50;;;0.30;;
13311;SDS011;34033;48.672;9.376;2023-05-10T02:27:38;0.27;;;0.20;;
13311;SDS011;34033;48.672;9.376;2023-05-10T02:30:04;0.20;;;0.20;;
13311;SDS011;34033;48.672;9.376;2023-05-10T02:32:31;0.50;;;0.43;;
13311;SDS011;34033;48.672;9.376;2023-05-10T02:34:58;0.40;;;0.30;;
13311;SDS011;34033;48.672;9.376;2023-05-10T02:37:26;0.30;;;0.30;;
13311;SDS011;34033;48.672;9.376;2023-05-10T02:39:53;0.10;;;0.10;;
13311;SDS011;34033;48.672;9.376;2023-05-10T02:42:23;0.20;;;0.20;;
13311;SDS011;34033;48.672;9.376;2023-05-10T02:44:52;0.17;;;0.17;;
13311;SDS011;34033;48.672;9.376;2023-05-10T02:47:20;0.30;;;0.30;;
13311;SDS011;34033;48.672;9.376;2023-05-10T02:49:46;0.20;;;0.20;;
13311;SDS011;34033;48.672;9.376;2023-05-10T02:52:12;0.13;;;0.13;;
13311;SDS011;34033;48.672;9.376;2023-05-10T02:54:44;0.33;;;0.33;;
13311;SDS011;34033;48.672;9.376;2023-05-10T02:57:24;0.20;;;0.20;;
13311;SDS011;34033;48.672;9.376;2023-05-10T02:59:52;0.20;;;0.20;;
13311;SDS011;34033;48.672;9.376;2023-05-10T03:02:17;0.30;;;0.30;;
13311;SDS011;34033;48.672;9.376;2023-05-10T03:04:43;0.20;;;0.20;;
13311;SDS011;34033;48.672;9.376;2023-05-10T03:07:08;0.30;;;0.30;;
13311;SDS011;34033;48.672;9.376;2023-05-10T03:09:34;0.27;;;0.27;;
13311;SDS011;34033;48.672;9.376;2023-05-10T03:12:02;0.37;;;0.37;;
13311;SDS011;34033;48.672;9.376;2023-05-10T03:17:06;0.20;;;0.20;;
13311;SDS011;34033;48.672;9.376;2023-05-10T03:19:53;1.37;;;0.43;;
13311;SDS011;34033;48.672;9.376;2023-05-10T03:22:24;0.23;;;0.23;;
13311;SDS011;34033;48.672;9.376;2023-05-10T03:24:55;0.30;;;0.30;;
13311;SDS011;34033;48.672;9.376;2023-05-10T03:27:23;0.30;;;0.30;;
13311;SDS011;34033;48.672;9.376;2023-05-10T03:29:50;0.20;;;0.20;;
13311;SDS011;34033;48.672;9.376;2023-05-10T03:32:16;0.30;;;0.30;;
13311;SDS011;34033;48.672;9.376;2023-05-10T03:34:42;5.70;;;0.80;;
13311;SDS011;34033;48.672;9.376;2023-05-10T03:37:08;0.40;;;0.40;;
13311;SDS011;34033;48.672;9.376;2023-05-10T03:39:34;1.87;;;0.30;;
13311;SDS011;34033;48.672;9.376;2023-05-10T03:42:00;0.40;;;0.40;;
13311;SDS011;34033;48.672;9.376;2023-05-10T03:44:25;0.30;;;0.30;;
13311;SDS011;34033;48.672;9.376;2023-05-10T03:46:50;0.30;;;0.30;;
13311;SDS011;34033;48.672;9.376;2023-05-10T03:49:16;1.37;;;0.43;;
13311;SDS011;34033;48.672;9.376;2023-05-10T03:51:41;0.73;;;0.30;;
13311;SDS011;34033;48.672;9.376;2023-05-10T03:54:06;0.93;;;0.57;;
13311;SDS011;34033;48.672;9.376;2023-05-10T03:56:32;0.70;;;0.70;;
13311;SDS011;34033;48.672;9.376;2023-05-10T03:58:57;0.57;;;0.57;;
13311;SDS011;34033;48.672;9.376;2023-05-10T04:01:22;1.17;;;0.70;;
13311;SDS011;34033;48.672;9.376;2023-05-10T04:03:48;0.37;;;0.37;;
13311;SDS011;34033;48.672;9.376;2023-05-10T04:06:13;2.23;;;1.10;;
13311;SDS011;34033;48.672;9.376;2023-05-10T04:08:38;1.17;;;0.97;;
13311;SDS011;34033;48.672;9.376;2023-05-10T04:11:04;2.70;;;0.57;;
13311;SDS011;34033;48.672;9.376;2023-05-10T04:13:31;0.50;;;0.50;;
13311;SDS011;34033;48.672;9.376;2023-05-10T04:15:57;0.20;;;0.20;;
13311;SDS011;34033;48.672;9.376;2023-05-10T04:18:22;0.40;;;0.40;;
13311;SDS011;34033;48.672;9.376;2023-05-10T04:20:47;0.50;;;0.50;;
13311;SDS011;34033;48.672;9.376;2023-05-10T04:23:13;0.50;;;0.50;;
13311;SDS011;34033;48.672;9.376;2023-05-10T04:25:40;0.93;;;0.50;;
13311;SDS011;34033;48.672;9.376;2023-05-10T04:28:05;0.30;;;0.30;;
13311;SDS011;34033;48.672;9.376;2023-05-10T04:30:31;0.50;;;0.50;;
13311;SDS011;34033;48.672;9.376;2023-05-10T04:32:56;0.50;;;0.50;;
13311;SDS011;34033;48.672;9.376;2023-05-10T04:35:21;0.57;;;0.57;;
13311;SDS011;34033;48.672;9.376;2023-05-10T04:37:47;0.43;;;0.40;;
13311;SDS011;34033;48.672;9.376;2023-05-10T04:40:12;1.10;;;0.80;;
13311;SDS011;34033;48.672;9.376;2023-05-10T04:42:39;0.53;;;0.50;;
13311;SDS011;34033;48.672;9.376;2023-05-10T04:45:06;0.43;;;0.43;;
13311;SDS011;34033;48.672;9.376;2023-05-10T04:47:32;0.60;;;0.60;;
13311;SDS011;34033;48.672;9.376;2023-05-10T04:49:57;1.53;;;0.80;;
13311;SDS011;34033;48.672;9.376;2023-05-10T04:52:23;0.30;;;0.30;;
13311;SDS011;34033;48.672;9.376;2023-05-10T04:54:49;0.30;;;0.30;;
13311;SDS011;34033;48.672;9.376;2023-05-10T04:57:14;0.57;;;0.57;;
13311;SDS011;34033;48.672;9.376;2023-05-10T04:59:39;2.63;;;0.77;;
13311;SDS011;34033;48.672;9.376;2023-05-10T05:02:05;3.23;;;0.70;;
13311;SDS011;34033;48.672;9.376;2023-05-10T05:04:30;2.40;;;0.60;;
13311;SDS011;34033;48.672;9.376;2023-05-10T05:06:56;0.53;;;0.53;;
13311;SDS011;34033;48.672;9.376;2023-05-10T05:09:22;0.63;;;0.63;;
13311;SDS011;34033;48.672;9.376;2023-05-10T05:11:47;0.70;;;0.70;;
13311;SDS011;34033;48.672;9.376;2023-05-10T05:14:12;0.60;;;0.60;;
13311;SDS011;34033;48.672;9.376;2023-05-10T05:16:37;0.73;;;0.67;;
13311;SDS011;34033;48.672;9.376;2023-05-10T05:19:03;1.43;;;0.70;;
13311;SDS011;34033;48.672;9.376;2023-05-10T05:21:28;0.60;;;0.60;;
13311;SDS011;34033;48.672;9.376;2023-05-10T05:23:54;0.63;;;0.53;;
13311;SDS011;34033;48.672;9.376;2023-05-10T05:26:19;0.50;;;0.50;;
13311;SDS011;34033;48.672;9.376;2023-05-10T05:28:45;0.50;;;0.50;;
13311;SDS011;34033;48.672;9.376;2023-05-10T05:31:10;0.57;;;0.50;;
13311;SDS011;34033;48.672;9.376;2023-05-10T05:33:36;0.40;;;0.40;;
13311;SDS011;34033;48.672;9.376;2023-05-10T05:36:02;0.50;;;0.50;;
13311;SDS011;34033;48.672;9.376;2023-05-10T05:38:28;0.70;;;0.70;;
13311;SDS011;34033;48.672;9.376;2023-05-10T05:40:54;1.60;;;0.50;;
13311;SDS011;34033;48.672;9.376;2023-05-10T05:43:20;0.50;;;0.50;;
13311;SDS011;34033;48.672;9.376;2023-05-10T05:45:45;0.50;;;0.50;;
13311;SDS011;34033;48.672;9.376;2023-05-10T05:48:10;1.70;;;0.50;;
13311;SDS011;34033;48.672;9.376;2023-05-10T05:50:36;0.60;;;0.60;;
13311;SDS011;34033;48.672;9.376;2023-05-10T05:53:01;0.60;;;0.60;;
13311;SDS011;34033;48.672;9.376;2023-05-10T05:55:27;0.70;;;0.70;;
13311;SDS011;34033;48.672;9.376;2023-05-10T05:57:52;0.57;;;0.57;;
13311;SDS011;34033;48.672;9.376;2023-05-10T06:00:18;0.40;;;0.40;;
13311;SDS011;34033;48.672;9.376;2023-05-10T06:02:43;0.50;;;0.50;;
13311;SDS011;34033;48.672;9.376;2023-05-10T06:05:09;2.50;;;0.83;;
13311;SDS011;34033;48.672;9.376;2023-05-10T06:07:34;0.70;;;0.70;;
13311;SDS011;34033;48.672;9.376;2023-05-10T06:10:00;1.20;;;0.50;;
13311;SDS011;34033;48.672;9.376;2023-05-10T06:12:26;0.40;;;0.40;;
13311;SDS011;34033;48.672;9.376;2023-05-10T06:14:51;0.70;;;0.70;;
13311;SDS011;34033;48.672;9.376;2023-05-10T06:17:16;0.60;;;0.60;;
13311;SDS011;34033;48.672;9.376;2023-05-10T06:19:41;0.53;;;0.53;;
13311;SDS011;34033;48.672;9.376;2023-05-10T06:22:07;2.07;;;0.57;;
13311;SDS011;34033;48.672;9.376;2023-05-10T06:24:32;0.63;;;0.63;;
13311;SDS011;34033;48.672;9.376;2023-05-10T06:26:57;0.50;;;0.50;;
13311;SDS011;34033;48.672;9.376;2023-05-10T06:29:25;1.00;;;1.00;;
13311;SDS011;34033;48.672;9.376;2023-05-10T06:31:50;0.87;;;0.70;;
13311;SDS011;34033;48.672;9.376;2023-05-10T06:34:15;0.73;;;0.60;;
13311;SDS011;34033;48.672;9.376;2023-05-10T06:36:41;0.83;;;0.70;;
13311;SDS011;34033;48.672;9.376;2023-05-10T06:39:06;1.43;;;0.60;;
13311;SDS011;34033;48.672;9.376;2023-05-10T06:41:32;0.60;;;0.60;;
13311;SDS011;34033;48.672;9.376;2023-05-10T06:43:57;0.57;;;0.57;;
13311;SDS011;34033;48.672;9.376;2023-05-10T06:46:22;0.87;;;0.70;;
13311;SDS011;34033;48.672;9.376;2023-05-10T06:48:47;1.27;;;0.53;;
13311;SDS011;34033;48.672;9.376;2023-05-10T06:51:13;0.43;;;0.43;;
13311;SDS011;34033;48.672;9.376;2023-05-10T06:53:38;0.70;;;0.70;;
13311;SDS011;34033;48.672;9.376;2023-05-10T06:56:03;0.60;;;0.60;;
13311;SDS011;34033;48.672;9.376;2023-05-10T06:58:29;0.80;;;0.80;;
13311;SDS011;34033;48.672;9.376;2023-05-10T07:00:54;0.90;;;0.80;;
13311;SDS011;34033;48.672;9.376;2023-05-10T07:03:20;0.70;;;0.70;;
13311;SDS011;34033;48.672;9.376;2023-05-10T07:05:45;1.70;;;0.67;;
13311;SDS011;34033;48.672;9.376;2023-05-10T07:08:10;3.60;;;0.70;;
13311;SDS011;34033;48.672;9.376;2023-05-10T07:10:36;0.90;;;0.67;;
13311;SDS011;34033;48.672;9.376;2023-05-10T07:13:01;0.63;;;0.63;;
13311;SDS011;34033;48.672;9.376;2023-05-10T07:15:26;0.97;;;0.97;;
13311;SDS011;34033;48.672;9.376;2023-05-10T07:17:52;0.60;;;0.60;;
13311;SDS011;34033;48.672;9.376;2023-05-10T07:20:18;0.93;;;0.93;;
13311;SDS011;34033;48.672;9.376;2023-05-10T07:22:43;1.20;;;1.10;;
13311;SDS011;34033;48.672;9.376;2023-05-10T07:25:09;0.50;;;0.50;;
13311;SDS011;34033;48.672;9.376;2023-05-10T07:27:34;2.13;;;0.80;;
13311;SDS011;34033;48.672;9.376;2023-05-10T07:29:59;0.80;;;0.80;;
13311;SDS011;34033;48.672;9.376;2023-05-10T07:32:25;0.40;;;0.40;;
13311;SDS011;34033;48.672;9.376;2023-05-10T07:34:50;1.30;;;0.67;;
13311;SDS011;34033;48.672;9.376;2023-05-10T07:37:16;0.60;;;0.60;;
13311;SDS011;34033;48.672;9.376;2023-05-10T07:39:41;0.50;;;0.50;;
13311;SDS011;34033;48.672;9.376;2023-05-10T07:42:06;0.80;;;0.80;;
13311;SDS011;34033;48.672;9.376;2023-05-10T07:44:32;0.67;;;0.67;;
13311;SDS011;34033;48.672;9.376;2023-05-10T07:46:57;2.10;;;0.70;;
13311;SDS011;34033;48.672;9.376;2023-05-10T07:49:22;0.80;;;0.80;;
13311;SDS011;34033;48.672;9.376;2023-05-10T07:51:51;1.90;;;0.60;;
13311;SDS011;34033;48.672;9.376;2023-05-10T07:54:16;0.60;;;0.60;;
13311;SDS011;34033;48.672;9.376;2023-05-10T07:56:42;1.00;;;0.90;;
13311;SDS011;34033;48.672;9.376;2023-05-10T07:59:14;0.80;;;0.80;;
13311;SDS011;34033;48.672;9.376;2023-05-10T08:01:41;0.90;;;0.80;;
13311;SDS011;34033;48.672;9.376;2023-05-10T08:04:06;0.70;;;0.70;;
13311;SDS011;34033;48.672;9.376;2023-05-10T08:06:32;0.90;;;0.90;;
13311;SDS011;34033;48.672;9.376;2023-05-10T08:08:57;0.87;;;0.87;;
13311;SDS011;34033;48.672;9.376;2023-05-10T08:11:23;0.70;;;0.70;;
13311;SDS011;34033;48.672;9.376;2023-05-10T08:13:49;0.77;;;0.77;;
13311;SDS011;34033;48.672;9.376;2023-05-10T08:16:15;0.60;;;0.60;;
13311;SDS011;34033;48.672;9.376;2023-05-10T08:18:41;2.47;;;0.80;;
13311;SDS011;34033;48.672;9.376;2023-05-10T08:21:08;0.53;;;0.53;;
13311;SDS011;34033;48.672;9.376;2023-05-10T08:23:34;1.60;;;0.60;;
13311;SDS011;34033;48.672;9.376;2023-05-10T08:25:59;0.53;;;0.53;;
13311;SDS011;34033;48.672;9.376;2023-05-10T08:28:25;0.60;;;0.53;;
13311;SDS011;34033;48.672;9.376;2023-05-10T08:30:50;0.70;;;0.70;;
13311;SDS011;34033;48.672;9.376;2023-05-10T08:33:17;0.40;;;0.40;;
13311;SDS011;34033;48.672;9.376;2023-05-10T08:35:43;0.40;;;0.40;;
13311;SDS011;34033;48.672;9.376;2023-05-10T08:38:08;0.60;;;0.60;;
13311;SDS011;34033;48.672;9.376;2023-05-10T08:40:33;0.57;;;0.57;;
13311;SDS011;34033;48.672;9.376;2023-05-10T08:43:08;1.03;;;0.60;;
13311;SDS011;34033;48.672;9.376;2023-05-10T08:45:36;1.53;;;0.70;;
13311;SDS011;34033;48.672;9.376;2023-05-10T08:48:04;2.73;;;0.50;;
13311;SDS011;34033;48.672;9.376;2023-05-10T08:50:31;0.40;;;0.40;;
13311;SDS011;34033;48.672;9.376;2023-05-10T08:52:59;1.03;;;0.47;;
13311;SDS011;34033;48.672;9.376;2023-05-10T08:55:28;2.43;;;0.40;;
13311;SDS011;34033;48.672;9.376;2023-05-10T08:57:55;0.60;;;0.60;;
13311;SDS011;34033;48.672;9.376;2023-05-10T09:00:20;0.60;;;0.60;;
13311;SDS011;34033;48.672;9.376;2023-05-10T09:02:48;0.50;;;0.50;;
13311;SDS011;34033;48.672;9.376;2023-05-10T09:05:15;0.60;;;0.60;;
13311;SDS011;34033;48.672;9.376;2023-05-10T09:07:41;1.00;;;0.53;;
13311;SDS011;34033;48.672;9.376;2023-05-10T09:10:07;0.60;;;0.60;;
13311;SDS011;34033;48.672;9.376;2023-05-10T09:12:33;2.43;;;0.40;;
13311;SDS011;34033;48.672;9.376;2023-05-10T09:14:59;0.57;;;0.57;;
13311;SDS011;34033;48.672;9.376;2023-05-10T09:17:26;0.40;;;0.40;;
13311;SDS011;34033;48.672;9.376;2023-05-10T09:19:57;2.23;;;0.37;;
13311;SDS011;34033;48.672;9.376;2023-05-10T09:22:26;0.57;;;0.50;;
13311;SDS011;34033;48.672;9.376;2023-05-10T09:25:08;0.50;;;0.50;;
13311;SDS011;34033;48.672;9.376;2023-05-10T09:27:36;0.97;;;0.40;;
13311;SDS011;34033;48.672;9.376;2023-05-10T09:30:02;2.03;;;0.50;;
13311;SDS011;34033;48.672;9.376;2023-05-10T09:35:11;0.40;;;0.40;;
13311;SDS011;34033;48.672;9.376;2023-05-10T09:37:38;0.20;;;0.20;;
13311;SDS011;34033;48.672;9.376;2023-05-10T09:40:06;0.57;;;0.40;;
13311;SDS011;34033;48.672;9.376;2023-05-10T09:42:33;0.30;;;0.30;;
13311;SDS011;34033;48.672;9.376;2023-05-10T09:45:06;0.30;;;0.30;;
13311;SDS011;34033;48.672;9.376;2023-05-10T09:47:32;0.67;;;0.50;;
13311;SDS011;34033;48.672;9.376;2023-05-10T09:49:59;0.53;;;0.40;;
13311;SDS011;34033;48.672;9.376;2023-05-10T09:52:50;0.30;;;0.30;;
13311;SDS011;34033;48.672;9.376;2023-05-10T09:55:22;0.93;;;0.50;;
13311;SDS011;34033;48.672;9.376;2023-05-10T09:57:50;3.07;;;0.40;;
13311;SDS011;34033;48.672;9.376;2023-05-10T10:00:24;0.40;;;0.40;;
13311;SDS011;34033;48.672;9.376;2023-05-10T10:02:57;0.67;;;0.20;;
13311;SDS011;34033;48.672;9.376;2023-05-10T10:05:33;0.17;;;0.17;;
13311;SDS011;34033;48.672;9.376;2023-05-10T10:08:01;0.30;;;0.30;;
13311;SDS011;34033;48.672;9.376;2023-05-10T10:10:28;0.67;;;0.43;;
13311;SDS011;34033;48.672;9.376;2023-05-10T10:12:54;0.60;;;0.60;;
13311;SDS011;34033;48.672;9.376;2023-05-10T10:15:20;4.70;;;0.57;;
13311;SDS011;34033;48.672;9.376;2023-05-10T10:17:46;3.50;;;0.60;;
13311;SDS011;34033;48.672;9.376;2023-05-10T10:20:13;0.93;;;0.60;;
13311;SDS011;34033;48.672;9.376;2023-05-10T10:22:39;0.63;;;0.40;;
13311;SDS011;34033;48.672;9.376;2023-05-10T10:25:07;0.77;;;0.50;;
13311;SDS011;34033;48.672;9.376;2023-05-10T10:31:12;0.37;;;0.30;;
13311;SDS011;34033;48.672;9.376;2023-05-10T10:36:24;0.40;;;0.40;;
13311;SDS011;34033;48.672;9.376;2023-05-10T10:52:31;0.40;;;0.40;;
13311;SDS011;34033;48.672;9.376;2023-05-10T10:55:06;0.57;;;0.20;;
13311;SDS011;34033;48.672;9.376;2023-05-10T10:57:44;0.60;;;0.27;;
13311;SDS011;34033;48.672;9.376;2023-05-10T11:02:50;0.40;;;0.40;;
13311;SDS011;34033;48.672;9.376;2023-05-10T11:07:57;0.50;;;0.50;;
13311;SDS011;34033;48.672;9.376;2023-05-10T11:10:27;0.60;;;0.37;;
13311;SDS011;34033;48.672;9.376;2023-05-10T11:13:00;0.47;;;0.30;;
13311;SDS011;34033;48.672;9.376;2023-05-10T11:15:32;0.23;;;0.23;;
13311;SDS011;34033;48.672;9.376;2023-05-10T11:18:24;0.30;;;0.30;;
13311;SDS011;34033;48.672;9.376;2023-05-10T11:20:58;0.33;;;0.33;;
13311;SDS011;34033;48.672;9.376;2023-05-10T11:23:31;0.40;;;0.40;;
13311;SDS011;34033;48.672;9.376;2023-05-10T11:26:01;0.30;;;0.30;;
13311;SDS011;34033;48.672;9.376;2023-05-10T11:28:26;1.13;;;0.40;;
13311;SDS011;34033;48.672;9.376;2023-05-10T11:30:52;0.57;;;0.50;;
13311;SDS011;34033;48.672;9.376;2023-05-10T11:33:18;2.73;;;0.40;;
13311;SDS011;34033;48.672;9.376;2023-05-10T11:35:44;0.43;;;0.43;;
13311;SDS011;34033;48.672;9.376;2023-05-10T11:38:11;0.37;;;0.37;;
13311;SDS011;34033;48.672;9.376;2023-05-10T11:40:37;0.30;;;0.30;;
13311;SDS011;34033;48.672;9.376;2023-05-10T11:43:03;0.70;;;0.40;;
13311;SDS011;34033;48.672;9.376;2023-05-10T11:45:33;0.30;;;0.30;;
13311;SDS011;34033;48.672;9.376;2023-05-10T11:48:00;1.07;;;0.40;;
13311;SDS011;34033;48.672;9.376;2023-05-10T11:50:26;0.97;;;0.40;;
13311;SDS011;34033;48.672;9.376;2023-05-10T11:52:53;0.50;;;0.50;;
13311;SDS011;34033;48.672;9.376;2023-05-10T11:55:21;0.67;;;0.30;;
13311;SDS011;34033;48.672;9.376;2023-05-10T11:57:47;0.40;;;0.40;;
13311;SDS011;34033;48.672;9.376;2023-05-10T12:00:17;1.47;;;0.47;;
13311;SDS011;34033;48.672;9.376;2023-05-10T12:02:42;2.10;;;0.63;;
13311;SDS011;34033;48.672;9.376;2023-05-10T12:05:08;0.93;;;0.53;;
13311;SDS011;34033;48.672;9.376;2023-05-10T12:07:34;0.77;;;0.60;;
13311;SDS011;34033;48.672;9.376;2023-05-10T12:15:19;1.07;;;0.57;;
13311;SDS011;34033;48.672;9.376;2023-05-10T12:17:46;0.40;;;0.40;;
13311;SDS011;34033;48.672;9.376;2023-05-10T12:20:15;2.70;;;0.60;;
13311;SDS011;34033;48.672;9.376;2023-05-10T12:22:45;1.40;;;0.57;;
13311;SDS011;34033;48.672;9.376;2023-05-10T12:25:22;2.20;;;0.97;;
13311;SDS011;34033;48.672;9.376;2023-05-10T12:27:49;2.27;;;2.03;;
13311;SDS011;34033;48.672;9.376;2023-05-10T12:30:21;3.87;;;1.20;;
13311;SDS011;34033;48.672;9.376;2023-05-10T12:32:47;9.07;;;1.63;;
13311;SDS011;34033;48.672;9.376;2023-05-10T12:35:12;1.70;;;1.10;;
13311;SDS011;34033;48.672;9.376;2023-05-10T12:37:38;1.30;;;1.10;;
13311;SDS011;34033;48.672;9.376;2023-05-10T12:40:06;0.83;;;0.83;;
13311;SDS011;34033;48.672;9.376;2023-05-10T12:42:34;1.03;;;1.00;;
13311;SDS011;34033;48.672;9.376;2023-05-10T12:45:03;0.80;;;0.80;;
13311;SDS011;34033;48.672;9.376;2023-05-10T12:47:30;1.23;;;0.73;;
13311;SDS011;34033;48.672;9.376;2023-05-10T12:49:56;0.80;;;0.80;;
13311;SDS011;34033;48.672;9.376;2023-05-10T12:52:22;1.33;;;0.80;;
13311;SDS011;34033;48.672;9.376;2023-05-10T12:54:47;0.50;;;0.50;;
13311;SDS011;34033;48.672;9.376;2023-05-10T12:57:13;0.70;;;0.70;;
13311;SDS011;34033;48.672;9.376;2023-05-10T12:59:38;1.70;;;0.83;;
13311;SDS011;34033;48.672;9.376;2023-05-10T13:02:04;0.60;;;0.60;;
13311;SDS011;34033;48.672;9.376;2023-05-10T13:04:30;0.80;;;0.80;;
13311;SDS011;34033;48.672;9.376;2023-05-10T13:06:56;1.10;;;1.00;;
13311;SDS011;34033;48.672;9.376;2023-05-10T13:09:23;0.70;;;0.70;;
13311;SDS011;34033;48.672;9.376;2023-05-10T13:11:54;1.00;;;0.73;;
13311;SDS011;34033;48.672;9.376;2023-05-10T13:14:20;2.50;;;0.80;;
13311;SDS011;34033;48.672;9.376;2023-05-10T13:16:46;1.17;;;0.60;;
13311;SDS011;34033;48.672;9.376;2023-05-10T13:19:12;0.70;;;0.70;;
13311;SDS011;34033;48.672;9.376;2023-05-10T13:21:38;0.60;;;0.60;;
13311;SDS011;34033;48.672;9.376;2023-05-10T13:24:05;0.70;;;0.70;;
13311;SDS011;34033;48.672;9.376;2023-05-10T13:26:31;0.60;;;0.60;;
13311;SDS011;34033;48.672;9.376;2023-05-10T13:28:56;1.90;;;0.60;;
13311;SDS011;34033;48.672;9.376;2023-05-10T13:31:21;0.43;;;0.43;;
13311;SDS011;34033;48.672;9.376;2023-05-10T13:33:47;0.60;;;0.60;;
13311;SDS011;34033;48.672;9.376;2023-05-10T13:36:12;0.50;;;0.50;;
13311;SDS011;34033;48.672;9.376;2023-05-10T13:38:40;0.50;;;0.50;;
13311;SDS011;34033;48.672;9.376;2023-05-10T13:41:08;0.60;;;0.60;;
13311;SDS011;34033;48.672;9.376;2023-05-10T13:43:34;0.57;;;0.57;;
13311;SDS011;34033;48.672;9.376;2023-05-10T13:46:02;0.60;;;0.60;;
13311;SDS011;34033;48.672;9.376;2023-05-10T13:48:27;0.63;;;0.60;;
13311;SDS011;34033;48.672;9.376;2023-05-10T13:50:55;0.83;;;0.63;;
13311;SDS011;34033;48.672;9.376;2023-05-10T13:53:23;0.40;;;0.40;;
13311;SDS011;34033;48.672;9.376;2023-05-10T13:55:48;0.60;;;0.60;;
13311;SDS011;34033;48.672;9.376;2023-05-10T13:58:16;2.47;;;0.80;;
13311;SDS011;34033;48.672;9.376;2023-05-10T14:00:42;0.50;;;0.50;;
13311;SDS011;34033;48.672;9.376;2023-05-10T14:03:07;0.60;;;0.60;;
13311;SDS011;34033;48.672;9.376;2023-05-10T14:05:35;1.77;;;0.93;;
13311;SDS011;34033;48.672;9.376;2023-05-10T14:08:01;0.67;;;0.67;;
13311;SDS011;34033;48.672;9.376;2023-05-10T14:10:26;1.17;;;0.70;;
13311;SDS011;34033;48.672;9.376;2023-05-10T14:12:51;0.67;;;0.67;;
13311;SDS011;34033;48.672;9.376;2023-05-10T14:15:17;0.50;;;0.50;;
13311;SDS011;34033;48.672;9.376;2023-05-10T14:17:43;1.20;;;0.80;;
13311;SDS011;34033;48.672;9.376;2023-05-10T14:20:08;0.63;;;0.63;;
13311;SDS011;34033;48.672;9.376;2023-05-10T14:22:34;0.80;;;0.80;;
13311;SDS011;34033;48.672;9.376;2023-05-10T14:24:59;0.90;;;0.90;;
13311;SDS011;34033;48.672;9.376;2023-05-10T14:27:25;0.80;;;0.80;;
13311;SDS011;34033;48.672;9.376;2023-05-10T14:29:51;0.90;;;0.60;;
13311;SDS011;34033;48.672;9.376;2023-05-10T14:32:16;1.53;;;0.67;;
13311;SDS011;34033;48.672;9.376;2023-05-10T14:34:41;0.97;;;0.97;;
13311;SDS011;34033;48.672;9.376;2023-05-10T14:37:07;2.33;;;0.90;;
13311;SDS011;34033;48.672;9.376;2023-05-10T14:39:35;0.57;;;0.57;;
13311;SDS011;34033;48.672;9.376;2023-05-10T14:42:01;0.70;;;0.70;;
13311;SDS011;34033;48.672;9.376;2023-05-10T14:44:27;5.00;;;1.03;;
13311;SDS011;34033;48.672;9.376;2023-05-10T14:46:53;0.50;;;0.50;;
13311;SDS011;34033;48.672;9.376;2023-05-10T14:49:18;0.93;;;0.70;;
13311;SDS011;34033;48.672;9.376;2023-05-10T14:51:43;0.50;;;0.50;;
13311;SDS011;34033;48.672;9.376;2023-05-10T14:54:09;0.60;;;0.60;;
13311;SDS011;34033;48.672;9.376;2023-05-10T14:56:35;1.80;;;0.63;;
13311;SDS011;34033;48.672;9.376;2023-05-10T14:59:02;0.57;;;0.57;;
13311;SDS011;34033;48.672;9.376;2023-05-10T15:01:28;1.27;;;0.63;;
13311;SDS011;34033;48.672;9.376;2023-05-10T15:03:54;0.53;;;0.50;;
13311;SDS011;34033;48.672;9.376;2023-05-10T15:06:22;0.73;;;0.60;;
13311;SDS011;34033;48.672;9.376;2023-05-10T15:08:50;0.70;;;0.70;;
13311;SDS011;34033;48.672;9.376;2023-05-10T15:11:15;0.67;;;0.60;;
13311;SDS011;34033;48.672;9.376;2023-05-10T15:13:40;0.83;;;0.80;;
13311;SDS011;34033;48.672;9.376;2023-05-10T15:16:06;0.70;;;0.70;;
13311;SDS011;34033;48.672;9.376;2023-05-10T15:18:31;1.47;;;1.00;;
13311;SDS011;34033;48.672;9.376;2023-05-10T15:20:56;0.80;;;0.80;;
13311;SDS011;34033;48.672;9.376;2023-05-10T15:23:23;0.70;;;0.70;;
13311;SDS011;34033;48.672;9.376;2023-05-10T15:25:48;3.70;;;1.00;;
13311;SDS011;34033;48.672;9.376;2023-05-10T15:28:17;1.10;;;1.00;;
13311;SDS011;34033;48.672;9.376;2023-05-10T15:30:42;1.57;;;1.00;;
13311;SDS011;34033;48.672;9.376;2023-05-10T15:33:07;0.70;;;0.70;;
13311;SDS011;34033;48.672;9.376;2023-05-10T15:35:33;0.90;;;0.90;;
13311;SDS011;34033;48.672;9.376;2023-05-10T15:38:00;2.90;;;0.60;;